createdAt,value
2023-01-10T00:02:27.599Z,14.80
2023-01-10T00:06:33.193Z,13.57
2023-01-10T00:10:38.695Z,14.20
2023-01-10T00:14:44.284Z,15.30
2023-01-10T00:18:50.042Z,16.10
2023-01-10T00:22:55.592Z,15.00
2023-01-10T00:27:03.037Z,14.17
2023-01-10T00:31:11.850Z,13.93
2023-01-10T00:35:17.394Z,13.20
2023-01-10T00:39:26.674Z,12.67
2023-01-10T00:43:50.555Z,13.10
2023-01-10T00:47:55.941Z,13.20
2023-01-10T00:52:01.547Z,13.30
2023-01-10T00:56:07.317Z,13.77
2023-01-10T01:00:13.238Z,12.90
2023-01-10T01:04:18.942Z,12.50
2023-01-10T01:08:24.369Z,11.60
2023-01-10T01:12:29.907Z,12.03
2023-01-10T01:16:35.358Z,11.77
2023-01-10T01:20:42.140Z,11.87
2023-01-10T01:24:47.591Z,10.67
2023-01-10T01:28:53.111Z,10.90
2023-01-10T01:32:58.541Z,11.30
2023-01-10T01:37:04.176Z,10.93
2023-01-10T01:41:29.794Z,10.70
2023-01-10T01:45:38.135Z,9.40
2023-01-10T01:49:45.041Z,10.00
2023-01-10T01:53:56.426Z,9.37
2023-01-10T01:58:08.217Z,9.17
2023-01-10T02:02:23.344Z,8.60
2023-01-10T02:06:29.205Z,7.97
2023-01-10T02:11:05.982Z,8.27
2023-01-10T02:15:13.149Z,9.57
2023-01-10T02:19:46.363Z,6.63
2023-01-10T02:24:01.183Z,6.33
2023-01-10T02:28:40.008Z,7.17
2023-01-10T02:33:09.422Z,5.67
2023-01-10T02:37:37.184Z,5.80
2023-01-10T02:41:53.255Z,5.90
2023-01-10T02:46:08.879Z,5.47
2023-01-10T02:50:30.951Z,5.67
2023-01-10T02:54:36.437Z,5.87
2023-01-10T02:58:54.052Z,5.80
2023-01-10T03:03:44.058Z,6.03
2023-01-10T03:08:19.676Z,5.30
2023-01-10T03:13:02.286Z,6.20
2023-01-10T03:17:10.898Z,6.20
2023-01-10T03:21:19.593Z,5.77
2023-01-10T03:25:28.849Z,6.17
2023-01-10T03:30:05.523Z,6.70
2023-01-10T03:34:11.957Z,5.43
2023-01-10T03:38:50.650Z,5.83
2023-01-10T03:43:41.820Z,6.27
2023-01-10T03:47:51.111Z,6.20
2023-01-10T03:51:58.500Z,6.97
2023-01-10T03:56:04.416Z,5.63
2023-01-10T04:00:11.547Z,5.13
2023-01-10T04:04:17.303Z,5.37
2023-01-10T04:08:22.791Z,4.60
2023-01-10T04:12:28.196Z,5.30
2023-01-10T04:16:36.980Z,4.97
2023-01-10T04:20:42.606Z,4.97
2023-01-10T04:24:51.156Z,4.80
2023-01-10T04:28:56.740Z,4.60
2023-01-10T04:33:02.179Z,5.03
2023-01-10T04:37:07.584Z,4.30
2023-01-10T04:41:13.067Z,4.10
2023-01-10T04:45:20.371Z,4.73
2023-01-10T04:49:25.750Z,5.20
2023-01-10T04:53:31.301Z,4.50
2023-01-10T04:57:36.916Z,4.60
2023-01-10T05:01:42.460Z,4.43
2023-01-10T05:05:47.909Z,5.00
2023-01-10T05:09:53.357Z,4.53
2023-01-10T05:13:58.804Z,4.37
2023-01-10T05:18:04.388Z,4.30
2023-01-10T05:22:09.824Z,4.53
2023-01-10T05:26:19.257Z,4.20
2023-01-10T05:30:24.721Z,4.10
2023-01-10T05:34:30.153Z,4.80
2023-01-10T05:38:35.587Z,3.80
2023-01-10T05:42:41.648Z,4.40
2023-01-10T05:46:47.115Z,4.17
2023-01-10T05:50:53.049Z,4.00
2023-01-10T05:54:58.558Z,4.57
2023-01-10T05:59:09.661Z,5.00
2023-01-10T06:03:19.701Z,3.90
2023-01-10T06:07:25.424Z,4.10
2023-01-10T06:11:30.948Z,3.20
2023-01-10T06:15:37.302Z,3.80
2023-01-10T06:19:42.920Z,3.77
2023-01-10T06:23:48.510Z,3.90
2023-01-10T06:27:54.128Z,3.60
2023-01-10T06:32:00.276Z,3.60
2023-01-10T06:36:06.119Z,4.23
2023-01-10T06:40:12.504Z,3.70
2023-01-10T06:44:18.161Z,3.60
2023-01-10T06:48:23.693Z,4.13
2023-01-10T06:52:29.116Z,3.70
2023-01-10T06:56:34.635Z,4.10
2023-01-10T07:00:40.427Z,3.67
2023-01-10T07:04:45.828Z,3.77
2023-01-10T07:08:51.215Z,3.40
2023-01-10T07:12:57.322Z,3.70
2023-01-10T07:17:03.149Z,3.70
2023-01-10T07:21:09.988Z,3.80
2023-01-10T07:25:15.414Z,3.83
2023-01-10T07:29:20.879Z,3.03
2023-01-10T07:33:26.577Z,3.30
2023-01-10T07:37:31.993Z,3.80
2023-01-10T07:41:37.357Z,3.63
2023-01-10T07:45:42.926Z,3.63
2023-01-10T07:49:48.309Z,3.27
2023-01-10T07:53:53.724Z,2.80
2023-01-10T07:57:59.155Z,3.40
2023-01-10T08:02:04.581Z,2.90
2023-01-10T08:06:11.220Z,3.63
2023-01-10T08:10:17.105Z,3.40
2023-01-10T08:14:22.616Z,2.93
2023-01-10T08:18:28.058Z,3.30
2023-01-10T08:22:33.592Z,2.63
2023-01-10T08:26:38.977Z,3.60
2023-01-10T08:30:44.836Z,2.77
2023-01-10T08:34:50.314Z,3.70
2023-01-10T08:38:56.160Z,3.80
2023-01-10T08:43:05.082Z,2.83
2023-01-10T08:47:10.530Z,3.37
2023-01-10T08:51:16.873Z,3.40
2023-01-10T08:55:22.355Z,3.53
2023-01-10T08:59:27.874Z,3.30
2023-01-10T09:03:33.330Z,4.07
2023-01-10T09:07:41.220Z,3.90
2023-01-10T09:11:46.748Z,3.87
2023-01-10T09:15:52.992Z,3.53
2023-01-10T09:19:58.469Z,3.50
2023-01-10T09:24:04.146Z,3.53
2023-01-10T09:28:10.008Z,3.27
2023-01-10T09:32:15.446Z,3.50
2023-01-10T09:36:20.889Z,3.10
2023-01-10T09:40:42.148Z,3.93
2023-01-10T09:45:18.635Z,3.70
2023-01-10T09:49:38.931Z,4.10
2023-01-10T09:53:46.856Z,3.80
2023-01-10T09:57:55.608Z,3.37
2023-01-10T10:02:56.923Z,3.73
2023-01-10T10:07:07.313Z,3.47
2023-01-10T10:11:21.601Z,4.00
2023-01-10T10:15:47.605Z,4.73
2023-01-10T10:20:28.720Z,5.23
2023-01-10T10:25:13.182Z,4.60
2023-01-10T10:29:31.020Z,4.50
2023-01-10T10:33:56.425Z,5.03
2023-01-10T10:38:24.825Z,4.90
2023-01-10T10:42:54.059Z,5.10
2023-01-10T10:47:00.734Z,5.63
2023-01-10T10:51:24.711Z,5.60
2023-01-10T10:55:35.572Z,5.40
2023-01-10T10:59:44.609Z,6.37
2023-01-10T11:03:56.709Z,6.60
2023-01-10T11:08:08.402Z,5.63
2023-01-10T11:12:16.866Z,6.10
2023-01-10T11:16:44.896Z,6.53
2023-01-10T11:21:05.437Z,6.70
2023-01-10T11:25:23.420Z,6.13
2023-01-10T11:29:42.783Z,7.00
2023-01-10T11:33:48.514Z,6.10
2023-01-10T11:38:02.764Z,6.20
2023-01-10T11:42:32.979Z,6.50
2023-01-10T11:46:43.911Z,7.07
2023-01-10T11:50:52.519Z,6.70
2023-01-10T11:55:00.453Z,6.87
2023-01-10T11:59:18.264Z,7.33
2023-01-10T12:03:37.049Z,7.50
2023-01-10T12:07:56.210Z,7.93
2023-01-10T12:12:05.877Z,7.47
2023-01-10T12:16:34.019Z,8.33
2023-01-10T12:20:49.799Z,7.50
2023-01-10T12:24:57.310Z,8.00
2023-01-10T12:29:15.416Z,7.70
2023-01-10T12:33:33.233Z,7.43
2023-01-10T12:37:51.748Z,7.63
2023-01-10T12:42:41.754Z,7.43
2023-01-10T12:47:16.328Z,7.27
2023-01-10T12:51:26.445Z,8.43
2023-01-10T12:55:40.874Z,7.67
2023-01-10T12:59:47.027Z,7.97
2023-01-10T13:04:02.343Z,7.40
2023-01-10T13:08:13.464Z,6.80
2023-01-10T13:12:31.969Z,8.53
2023-01-10T13:16:43.247Z,6.67
2023-01-10T13:20:48.930Z,7.90
2023-01-10T13:25:02.120Z,7.97
2023-01-10T13:29:12.729Z,7.10
2023-01-10T13:33:26.866Z,7.30
2023-01-10T13:37:37.817Z,8.10
2023-01-10T13:42:16.978Z,7.97
2023-01-10T13:46:22.393Z,7.10
2023-01-10T13:50:36.109Z,7.23
2023-01-10T13:54:57.458Z,7.00
2023-01-10T13:59:39.812Z,8.67
2023-01-10T14:03:58.576Z,7.57
2023-01-10T14:08:15.863Z,7.33
2023-01-10T14:12:28.583Z,6.90
2023-01-10T14:21:04.984Z,8.10
2023-01-10T14:25:21.357Z,6.77
2023-01-10T14:29:32.169Z,6.87
2023-01-10T14:33:37.979Z,6.93
2023-01-10T14:37:48.717Z,6.90
2023-01-10T14:42:00.337Z,7.30
2023-01-10T14:46:22.775Z,7.07
2023-01-10T14:50:32.661Z,7.23
2023-01-10T14:54:38.198Z,7.60
2023-01-10T14:58:43.706Z,7.40
2023-01-10T15:02:49.952Z,7.83
2023-01-10T15:07:12.005Z,6.90
2023-01-10T15:11:18.184Z,7.70
2023-01-10T15:15:43.627Z,7.07
2023-01-10T15:19:52.469Z,7.47
2023-01-10T15:23:58.025Z,6.20
2023-01-10T15:28:04.695Z,6.40
2023-01-10T15:32:33.765Z,6.57
2023-01-10T15:36:46.896Z,5.60
2023-01-10T15:40:59.340Z,5.70
2023-01-10T15:45:37.549Z,6.10
2023-01-10T15:49:54.274Z,5.67
2023-01-10T15:54:04.078Z,5.73
2023-01-10T15:58:40.320Z,5.80
2023-01-10T16:02:47.494Z,5.60
2023-01-10T16:07:06.812Z,5.20
2023-01-10T16:11:45.463Z,5.20
2023-01-10T16:15:51.138Z,5.23
2023-01-10T16:19:56.639Z,5.20
2023-01-10T16:24:02.919Z,4.90
2023-01-10T16:28:12.845Z,5.67
2023-01-10T16:32:18.320Z,4.87
2023-01-10T16:36:23.723Z,5.17
2023-01-10T16:40:41.114Z,4.80
2023-01-10T16:44:46.485Z,4.87
2023-01-10T16:48:53.278Z,4.80
2023-01-10T16:52:59.489Z,4.70
2023-01-10T16:57:04.928Z,5.20
2023-01-10T17:01:19.909Z,5.18
2023-01-10T17:05:25.633Z,5.13
2023-01-10T17:09:31.222Z,5.40
2023-01-10T17:13:41.709Z,6.00
2023-01-10T17:17:47.113Z,4.57
2023-01-10T17:21:52.898Z,5.23
2023-01-10T17:26:01.218Z,5.73
2023-01-10T17:30:07.592Z,5.50
2023-01-10T17:34:13.090Z,6.07
2023-01-10T17:38:18.717Z,4.63
2023-01-10T17:42:24.252Z,5.27
2023-01-10T17:46:29.810Z,5.13
2023-01-10T17:50:36.258Z,5.40
2023-01-10T17:54:42.279Z,5.20
2023-01-10T17:58:47.955Z,6.57
2023-01-10T18:02:53.472Z,6.13
2023-01-10T18:06:59.070Z,5.63
2023-01-10T18:11:04.708Z,6.17
2023-01-10T18:15:10.653Z,5.80
2023-01-10T18:19:16.123Z,5.70
2023-01-10T18:23:22.492Z,5.87
2023-01-10T18:27:28.228Z,5.60
2023-01-10T18:31:34.983Z,6.43
2023-01-10T18:35:40.474Z,5.70
2023-01-10T18:39:47.264Z,5.57
2023-01-10T18:43:52.663Z,5.60
2023-01-10T18:47:59.134Z,5.20
2023-01-10T18:52:04.674Z,6.20
2023-01-10T18:56:11.362Z,6.37
2023-01-10T19:00:17.504Z,5.73
2023-01-10T19:04:22.984Z,5.77
2023-01-10T19:08:28.616Z,5.70
2023-01-10T19:12:34.307Z,5.40
2023-01-10T19:16:39.801Z,6.07
2023-01-10T19:20:52.607Z,5.20
2023-01-10T19:24:58.009Z,5.70
2023-01-10T19:29:04.689Z,5.33
2023-01-10T19:33:10.095Z,5.97
2023-01-10T19:37:15.527Z,5.00
2023-01-10T19:41:21.083Z,5.10
2023-01-10T19:45:26.513Z,5.53
2023-01-10T19:49:36.008Z,4.53
2023-01-10T19:53:45.406Z,5.60
2023-01-10T19:57:50.820Z,4.33
2023-01-10T20:01:56.382Z,4.40
2023-01-10T20:06:06.314Z,4.67
2023-01-10T20:10:11.806Z,4.47
2023-01-10T20:14:20.180Z,4.77
2023-01-10T20:18:26.622Z,4.57
2023-01-10T20:22:32.049Z,4.20
2023-01-10T20:26:37.710Z,4.80
2023-01-10T20:30:43.176Z,4.37
2023-01-10T20:34:49.871Z,4.07
2023-01-10T20:38:55.647Z,3.43
2023-01-10T20:43:01.272Z,4.27
2023-01-10T20:47:06.943Z,3.80
2023-01-10T20:51:20.866Z,2.67
2023-01-10T20:55:26.376Z,3.20
2023-01-10T20:59:33.676Z,3.40
2023-01-10T21:03:45.504Z,2.87
2023-01-10T21:07:51.122Z,3.30
2023-01-10T21:12:07.434Z,2.67
2023-01-10T21:16:21.963Z,3.10
2023-01-10T21:20:27.959Z,2.90
2023-01-10T21:24:33.963Z,3.30
2023-01-10T21:28:42.773Z,2.50
2023-01-10T21:32:48.457Z,2.40
2023-01-10T21:36:54.437Z,2.47
2023-01-10T21:41:45.139Z,2.23
2023-01-10T21:45:50.752Z,2.33
2023-01-10T21:49:56.217Z,2.37
2023-01-10T21:54:01.909Z,2.40
2023-01-10T21:58:07.500Z,2.53
2023-01-10T22:02:15.117Z,1.93
2023-01-10T22:06:20.929Z,2.17
2023-01-10T22:10:26.502Z,2.00
2023-01-10T22:14:31.964Z,2.67
2023-01-10T22:18:37.431Z,1.93
2023-01-10T22:22:42.874Z,2.07
2023-01-10T22:26:49.245Z,2.00
2023-01-10T22:30:55.780Z,2.73
2023-01-10T22:35:02.228Z,2.23
2023-01-10T22:39:08.971Z,2.13
2023-01-10T22:43:14.400Z,1.90
2023-01-10T22:47:19.914Z,2.10
2023-01-10T22:51:25.749Z,2.00
2023-01-10T22:55:32.255Z,1.50
2023-01-10T22:59:37.747Z,2.13
2023-01-10T23:03:43.555Z,2.20
2023-01-10T23:07:50.776Z,1.80
2023-01-10T23:11:56.328Z,2.13
2023-01-10T23:16:08.543Z,2.23
2023-01-10T23:20:14.144Z,1.90
2023-01-10T23:24:19.702Z,1.70
2023-01-10T23:28:25.187Z,2.27
2023-01-10T23:32:30.583Z,2.63
2023-01-10T23:36:36.031Z,2.13
2023-01-10T23:40:41.475Z,2.33
2023-01-10T23:44:46.929Z,1.83
2023-01-10T23:48:52.351Z,2.00
2023-01-10T23:52:58.018Z,2.70
2023-01-10T23:57:03.603Z,1.90
